sensor_id;sensor_type;location;lat;lon;timestamp;pressure;altitude;pressure_sealevel;temperature;humidity
18755;BME280;35061;47.664;9.166;2023-11-21T00:00:05;101118.28;;;8.64;93.59
18755;BME280;35061;47.664;9.166;2023-11-21T00:02:41;101107.33;;;8.62;93.69
18755;BME280;35061;47.664;9.166;2023-11-21T00:05:10;101099.41;;;8.57;94.31
18755;BME280;35061;47.664;9.166;2023-11-21T00:07:38;101103.70;;;8.62;94.77
18755;BME280;35061;47.664;9.166;2023-11-21T00:10:07;101100.04;;;8.61;94.88
18755;BME280;35061;47.664;9.166;2023-11-21T00:12:36;101105.76;;;8.61;94.93
18755;BME280;35061;47.664;9.166;2023-11-21T00:15:05;101100.49;;;8.60;94.92
18755;BME280;35061;47.664;9.166;2023-11-21T00:17:34;101096.73;;;8.63;95.10
18755;BME280;35061;47.664;9.166;2023-11-21T00:20:02;101097.03;;;8.65;95.20
18755;BME280;35061;47.664;9.166;2023-11-21T00:22:35;101092.45;;;8.68;95.25
18755;BME280;35061;47.664;9.166;2023-11-21T00:25:03;101092.29;;;8.71;95.74
18755;BME280;35061;47.664;9.166;2023-11-21T00:27:31;101088.95;;;8.73;96.19
18755;BME280;35061;47.664;9.166;2023-11-21T00:30:00;101085.95;;;8.76;96.84
18755;BME280;35061;47.664;9.166;2023-11-21T00:32:28;101084.67;;;8.77;97.19
18755;BME280;35061;47.664;9.166;2023-11-21T00:34:56;101088.33;;;8.78;97.52
18755;BME280;35061;47.664;9.166;2023-11-21T00:37:24;101090.39;;;8.77;97.75
18755;BME280;35061;47.664;9.166;2023-11-21T00:39:55;101088.33;;;8.78;97.92
18755;BME280;35061;47.664;9.166;2023-11-21T00:42:23;101093.70;;;8.76;98.20
18755;BME280;35061;47.664;9.166;2023-11-21T00:44:51;101093.07;;;8.72;97.53
18755;BME280;35061;47.664;9.166;2023-11-21T00:47:19;101082.31;;;8.67;97.18
18755;BME280;35061;47.664;9.166;2023-11-21T00:49:47;101078.16;;;8.68;97.97
18755;BME280;35061;47.664;9.166;2023-11-21T00:52:16;101074.50;;;8.67;98.18
18755;BME280;35061;47.664;9.166;2023-11-21T00:54:46;101072.77;;;8.70;98.35
18755;BME280;35061;47.664;9.166;2023-11-21T00:57:15;101071.98;;;8.69;98.71
18755;BME280;35061;47.664;9.166;2023-11-21T00:59:43;101076.76;;;8.72;98.88
18755;BME280;35061;47.664;9.166;2023-11-21T01:02:11;101074.37;;;8.71;99.11
18755;BME280;35061;47.664;9.166;2023-11-21T01:04:39;101075.64;;;8.70;99.45
18755;BME280;35061;47.664;9.166;2023-11-21T01:07:07;101075.94;;;8.72;99.14
18755;BME280;35061;47.664;9.166;2023-11-21T01:09:35;101082.48;;;8.72;99.40
18755;BME280;35061;47.664;9.166;2023-11-21T01:12:04;101075.64;;;8.70;98.30
18755;BME280;35061;47.664;9.166;2023-11-21T01:14:32;101078.62;;;8.66;98.17
18755;BME280;35061;47.664;9.166;2023-11-21T01:17:00;101073.87;;;8.63;98.05
18755;BME280;35061;47.664;9.166;2023-11-21T01:19:28;101083.36;;;8.60;98.57
18755;BME280;35061;47.664;9.166;2023-11-21T01:21:56;101081.79;;;8.59;98.62
18755;BME280;35061;47.664;9.166;2023-11-21T01:24:25;101082.12;;;8.61;99.18
18755;BME280;35061;47.664;9.166;2023-11-21T01:26:53;101089.41;;;8.62;99.46
18755;BME280;35061;47.664;9.166;2023-11-21T01:29:21;101095.13;;;8.62;99.50
18755;BME280;35061;47.664;9.166;2023-11-21T01:31:49;101085.91;;;8.58;99.62
18755;BME280;35061;47.664;9.166;2023-11-21T01:34:17;101082.41;;;8.54;99.65
18755;BME280;35061;47.664;9.166;2023-11-21T01:36:46;101086.24;;;8.50;100.00
18755;BME280;35061;47.664;9.166;2023-11-21T01:39:15;101091.73;;;8.45;99.77
18755;BME280;35061;47.664;9.166;2023-11-21T01:41:45;101083.33;;;8.41;99.91
18755;BME280;35061;47.664;9.166;2023-11-21T01:44:13;101075.68;;;8.38;99.85
18755;BME280;35061;47.664;9.166;2023-11-21T01:46:41;101081.07;;;8.36;99.76
18755;BME280;35061;47.664;9.166;2023-11-21T01:49:09;101067.44;;;8.31;98.36
18755;BME280;35061;47.664;9.166;2023-11-21T01:51:41;101076.13;;;8.27;98.21
18755;BME280;35061;47.664;9.166;2023-11-21T01:54:11;101074.23;;;8.24;97.88
18755;BME280;35061;47.664;9.166;2023-11-21T01:56:46;101073.75;;;8.26;98.83
18755;BME280;35061;47.664;9.166;2023-11-21T01:59:18;101070.90;;;8.26;99.31
18755;BME280;35061;47.664;9.166;2023-11-21T02:01:48;101061.55;;;8.25;99.95
18755;BME280;35061;47.664;9.166;2023-11-21T02:04:18;101064.88;;;8.23;100.00
18755;BME280;35061;47.664;9.166;2023-11-21T02:06:46;101074.70;;;8.22;100.00
18755;BME280;35061;47.664;9.166;2023-11-21T02:09:15;101069.79;;;8.23;100.00
18755;BME280;35061;47.664;9.166;2023-11-21T02:11:43;101051.87;;;8.22;100.00
18755;BME280;35061;47.664;9.166;2023-11-21T02:14:11;101059.49;;;8.26;100.00
18755;BME280;35061;47.664;9.166;2023-11-21T02:16:41;101062.04;;;8.23;100.00
18755;BME280;35061;47.664;9.166;2023-11-21T02:19:10;101059.62;;;8.22;100.00
18755;BME280;35061;47.664;9.166;2023-11-21T02:21:42;101050.43;;;8.18;99.82
18755;BME280;35061;47.664;9.166;2023-11-21T02:24:10;101055.01;;;8.15;99.57
18755;BME280;35061;47.664;9.166;2023-11-21T02:26:38;101050.59;;;8.14;99.42
18755;BME280;35061;47.664;9.166;2023-11-21T02:29:06;101050.56;;;8.05;96.93
18755;BME280;35061;47.664;9.166;2023-11-21T02:31:38;101045.33;;;8.03;97.89
18755;BME280;35061;47.664;9.166;2023-11-21T02:34:16;101055.30;;;7.99;96.50
18755;BME280;35061;47.664;9.166;2023-11-21T02:36:44;101044.80;;;7.95;96.37
18755;BME280;35061;47.664;9.166;2023-11-21T02:39:12;101045.30;;;7.94;95.75
18755;BME280;35061;47.664;9.166;2023-11-21T02:41:40;101050.70;;;7.92;96.59
18755;BME280;35061;47.664;9.166;2023-11-21T02:44:09;101052.85;;;7.88;96.11
18755;BME280;35061;47.664;9.166;2023-11-21T02:46:37;101052.69;;;7.82;95.71
18755;BME280;35061;47.664;9.166;2023-11-21T02:49:07;101056.48;;;7.79;96.15
18755;BME280;35061;47.664;9.166;2023-11-21T02:51:35;101059.46;;;7.75;96.22
18755;BME280;35061;47.664;9.166;2023-11-21T02:54:03;101062.95;;;7.70;96.87
18755;BME280;35061;47.664;9.166;2023-11-21T02:56:34;101056.58;;;7.66;97.42
18755;BME280;35061;47.664;9.166;2023-11-21T02:59:02;101057.66;;;7.59;98.79
18755;BME280;35061;47.664;9.166;2023-11-21T03:01:30;101065.87;;;7.57;99.44
18755;BME280;35061;47.664;9.166;2023-11-21T03:03:58;101061.38;;;7.47;100.00
18755;BME280;35061;47.664;9.166;2023-11-21T03:06:26;101067.34;;;7.39;100.00
18755;BME280;35061;47.664;9.166;2023-11-21T03:08:54;101064.55;;;7.26;100.00
18755;BME280;35061;47.664;9.166;2023-11-21T03:11:23;101065.96;;;7.22;100.00
18755;BME280;35061;47.664;9.166;2023-11-21T03:13:51;101062.47;;;7.18;100.00
18755;BME280;35061;47.664;9.166;2023-11-21T03:16:19;101059.06;;;7.10;100.00
18755;BME280;35061;47.664;9.166;2023-11-21T03:18:47;101064.36;;;6.98;100.00
18755;BME280;35061;47.664;9.166;2023-11-21T03:21:15;101053.12;;;6.95;100.00
18755;BME280;35061;47.664;9.166;2023-11-21T03:23:43;101059.39;;;6.90;100.00
18755;BME280;35061;47.664;9.166;2023-11-21T03:26:13;101070.12;;;6.86;100.00
18755;BME280;35061;47.664;9.166;2023-11-21T03:28:41;101064.88;;;6.84;100.00
18755;BME280;35061;47.664;9.166;2023-11-21T03:31:09;101067.41;;;6.82;100.00
18755;BME280;35061;47.664;9.166;2023-11-21T03:33:38;101066.26;;;6.79;100.00
18755;BME280;35061;47.664;9.166;2023-11-21T03:36:06;101067.08;;;6.80;100.00
18755;BME280;35061;47.664;9.166;2023-11-21T03:38:36;101063.09;;;6.77;100.00
18755;BME280;35061;47.664;9.166;2023-11-21T03:41:04;101053.27;;;6.78;100.00
18755;BME280;35061;47.664;9.166;2023-11-21T03:43:32;101056.61;;;6.77;100.00
18755;BME280;35061;47.664;9.166;2023-11-21T03:46:00;101053.77;;;6.77;100.00
18755;BME280;35061;47.664;9.166;2023-11-21T03:48:29;101057.07;;;6.75;100.00
18755;BME280;35061;47.664;9.166;2023-11-21T03:50:59;101069.56;;;6.78;100.00
18755;BME280;35061;47.664;9.166;2023-11-21T03:53:26;101060.24;;;6.77;100.00
18755;BME280;35061;47.664;9.166;2023-11-21T03:55:54;101054.20;;;6.75;100.00
18755;BME280;35061;47.664;9.166;2023-11-21T03:58:22;101052.16;;;6.76;100.00
18755;BME280;35061;47.664;9.166;2023-11-21T04:00:51;101060.34;;;6.74;100.00
18755;BME280;35061;47.664;9.166;2023-11-21T04:03:18;101057.07;;;6.75;100.00
18755;BME280;35061;47.664;9.166;2023-11-21T04:05:47;101055.47;;;6.74;100.00
18755;BME280;35061;47.664;9.166;2023-11-21T04:08:15;101059.26;;;6.71;100.00
18755;BME280;35061;47.664;9.166;2023-11-21T04:10:43;101049.91;;;6.70;100.00
18755;BME280;35061;47.664;9.166;2023-11-21T04:13:12;101054.20;;;6.75;100.00
18755;BME280;35061;47.664;9.166;2023-11-21T04:15:40;101051.34;;;6.75;100.00
18755;BME280;35061;47.664;9.166;2023-11-21T04:18:08;101043.63;;;6.76;100.00
18755;BME280;35061;47.664;9.166;2023-11-21T04:20:37;101043.96;;;6.78;100.00
18755;BME280;35061;47.664;9.166;2023-11-21T04:23:05;101049.16;;;6.79;100.00
18755;BME280;35061;47.664;9.166;2023-11-21T04:25:33;101045.43;;;6.82;100.00
18755;BME280;35061;47.664;9.166;2023-11-21T04:28:01;101053.84;;;6.86;100.00
18755;BME280;35061;47.664;9.166;2023-11-21T04:30:28;101051.19;;;6.92;100.00
18755;BME280;35061;47.664;9.166;2023-11-21T04:32:56;101054.36;;;6.94;100.00
18755;BME280;35061;47.664;9.166;2023-11-21T04:35:24;101053.44;;;6.97;100.00
18755;BME280;35061;47.664;9.166;2023-11-21T04:37:52;101051.71;;;7.00;100.00
18755;BME280;35061;47.664;9.166;2023-11-21T04:40:20;101040.66;;;7.02;100.00
18755;BME280;35061;47.664;9.166;2023-11-21T04:42:49;101048.27;;;7.05;100.00
18755;BME280;35061;47.664;9.166;2023-11-21T04:45:16;101048.27;;;7.05;100.00
18755;BME280;35061;47.664;9.166;2023-11-21T04:47:44;101050.79;;;7.03;100.00
18755;BME280;35061;47.664;9.166;2023-11-21T04:50:13;101054.13;;;7.01;100.00
18755;BME280;35061;47.664;9.166;2023-11-21T04:52:41;101054.13;;;7.01;100.00
18755;BME280;35061;47.664;9.166;2023-11-21T04:55:09;101049.32;;;6.98;100.00
18755;BME280;35061;47.664;9.166;2023-11-21T04:57:38;101052.49;;;7.00;100.00
18755;BME280;35061;47.664;9.166;2023-11-21T05:00:09;101052.07;;;7.02;100.00
18755;BME280;35061;47.664;9.166;2023-11-21T05:02:39;101058.54;;;7.02;100.00
18755;BME280;35061;47.664;9.166;2023-11-21T05:05:08;101062.17;;;7.03;100.00
18755;BME280;35061;47.664;9.166;2023-11-21T05:07:47;101059.66;;;7.05;100.00
18755;BME280;35061;47.664;9.166;2023-11-21T05:10:16;101057.17;;;7.07;100.00
18755;BME280;35061;47.664;9.166;2023-11-21T05:12:44;101054.65;;;7.09;100.00
18755;BME280;35061;47.664;9.166;2023-11-21T05:15:17;101055.11;;;7.07;100.00
18755;BME280;35061;47.664;9.166;2023-11-21T05:17:50;101050.98;;;7.08;100.00
18755;BME280;35061;47.664;9.166;2023-11-21T05:20:22;101059.85;;;7.10;100.00
18755;BME280;35061;47.664;9.166;2023-11-21T05:22:56;101056.22;;;7.10;100.00
18755;BME280;35061;47.664;9.166;2023-11-21T05:25:27;101060.66;;;7.11;100.00
18755;BME280;35061;47.664;9.166;2023-11-21T05:27:59;101061.45;;;7.11;100.00
18755;BME280;35061;47.664;9.166;2023-11-21T05:30:31;101052.46;;;7.13;100.00
18755;BME280;35061;47.664;9.166;2023-11-21T05:33:02;101060.54;;;7.15;100.00
18755;BME280;35061;47.664;9.166;2023-11-21T05:35:33;101062.92;;;7.16;100.00
18755;BME280;35061;47.664;9.166;2023-11-21T05:38:03;101069.73;;;7.19;100.00
18755;BME280;35061;47.664;9.166;2023-11-21T05:40:32;101069.73;;;7.19;100.00
18755;BME280;35061;47.664;9.166;2023-11-21T05:43:05;101069.30;;;7.20;100.00
18755;BME280;35061;47.664;9.166;2023-11-21T05:45:33;101071.33;;;7.20;100.00
18755;BME280;35061;47.664;9.166;2023-11-21T05:48:02;101070.54;;;7.19;100.00
18755;BME280;35061;47.664;9.166;2023-11-21T05:50:32;101080.19;;;7.22;100.00
18755;BME280;35061;47.664;9.166;2023-11-21T05:53:00;101071.33;;;7.20;100.00
18755;BME280;35061;47.664;9.166;2023-11-21T05:55:31;101083.39;;;7.24;100.00
18755;BME280;35061;47.664;9.166;2023-11-21T05:57:59;101085.45;;;7.23;100.00
18755;BME280;35061;47.664;9.166;2023-11-21T06:00:30;101080.55;;;7.24;100.00
18755;BME280;35061;47.664;9.166;2023-11-21T06:02:59;101097.29;;;7.22;100.00
18755;BME280;35061;47.664;9.166;2023-11-21T06:05:28;101096.05;;;7.23;100.00
18755;BME280;35061;47.664;9.166;2023-11-21T06:07:58;101101.28;;;7.24;100.00
18755;BME280;35061;47.664;9.166;2023-11-21T06:10:31;101101.61;;;7.26;100.00
18755;BME280;35061;47.664;9.166;2023-11-21T06:12:59;101103.54;;;7.30;100.00
18755;BME280;35061;47.664;9.166;2023-11-21T06:15:30;101102.16;;;7.34;100.00
18755;BME280;35061;47.664;9.166;2023-11-21T06:17:57;101100.89;;;7.35;100.00
18755;BME280;35061;47.664;9.166;2023-11-21T06:20:26;101103.24;;;7.37;100.00
18755;BME280;35061;47.664;9.166;2023-11-21T06:22:55;101106.45;;;7.39;100.00
18755;BME280;35061;47.664;9.166;2023-11-21T06:25:32;101111.35;;;7.38;100.00
18755;BME280;35061;47.664;9.166;2023-11-21T06:28:06;101108.18;;;7.36;100.00
18755;BME280;35061;47.664;9.166;2023-11-21T06:30:34;101112.63;;;7.37;100.00
18755;BME280;35061;47.664;9.166;2023-11-21T06:33:07;101107.23;;;7.39;100.00
18755;BME280;35061;47.664;9.166;2023-11-21T06:35:35;101115.47;;;7.37;100.00
18755;BME280;35061;47.664;9.166;2023-11-21T06:38:04;101116.72;;;7.36;100.00
18755;BME280;35061;47.664;9.166;2023-11-21T06:40:32;101121.16;;;7.37;100.00
18755;BME280;35061;47.664;9.166;2023-11-21T06:43:01;101116.72;;;7.36;100.00
18755;BME280;35061;47.664;9.166;2023-11-21T06:45:29;101118.64;;;7.39;100.00
18755;BME280;35061;47.664;9.166;2023-11-21T06:47:57;101132.12;;;7.39;100.00
18755;BME280;35061;47.664;9.166;2023-11-21T06:50:25;101126.03;;;7.37;100.00
18755;BME280;35061;47.664;9.166;2023-11-21T06:52:53;101132.58;;;7.37;100.00
18755;BME280;35061;47.664;9.166;2023-11-21T06:55:21;101140.65;;;7.39;100.00
18755;BME280;35061;47.664;9.166;2023-11-21T06:57:50;101139.41;;;7.40;100.00
18755;BME280;35061;47.664;9.166;2023-11-21T07:00:19;101141.77;;;7.42;100.00
18755;BME280;35061;47.664;9.166;2023-11-21T07:02:47;101147.45;;;7.42;100.00
18755;BME280;35061;47.664;9.166;2023-11-21T07:05:16;101148.14;;;7.46;100.00
18755;BME280;35061;47.664;9.166;2023-11-21T07:07:49;101154.16;;;7.48;100.00
18755;BME280;35061;47.664;9.166;2023-11-21T07:10:17;101157.46;;;7.46;100.00
18755;BME280;35061;47.664;9.166;2023-11-21T07:12:45;101151.64;;;7.50;100.00
18755;BME280;35061;47.664;9.166;2023-11-21T07:15:13;101156.58;;;7.49;100.00
18755;BME280;35061;47.664;9.166;2023-11-21T07:17:41;101153.38;;;7.47;100.00
18755;BME280;35061;47.664;9.166;2023-11-21T07:20:10;101148.01;;;7.49;100.00
18755;BME280;35061;47.664;9.166;2023-11-21T07:22:38;101153.24;;;7.51;100.00
18755;BME280;35061;47.664;9.166;2023-11-21T07:25:07;101159.62;;;7.55;100.00
18755;BME280;35061;47.664;9.166;2023-11-21T07:27:37;101160.41;;;7.56;100.00
18755;BME280;35061;47.664;9.166;2023-11-21T07:30:05;101153.90;;;7.55;100.00
18755;BME280;35061;47.664;9.166;2023-11-21T07:32:35;101150.59;;;7.57;100.00
18755;BME280;35061;47.664;9.166;2023-11-21T07:35:04;101153.57;;;7.53;100.00
18755;BME280;35061;47.664;9.166;2023-11-21T07:37:32;101161.52;;;7.58;100.00
18755;BME280;35061;47.664;9.166;2023-11-21T07:40:00;101162.66;;;7.61;100.00
18755;BME280;35061;47.664;9.166;2023-11-21T07:42:28;101163.31;;;7.65;100.00
18755;BME280;35061;47.664;9.166;2023-11-21T07:44:56;101166.02;;;7.68;100.00
18755;BME280;35061;47.664;9.166;2023-11-21T07:47:24;101164.95;;;7.75;100.00
18755;BME280;35061;47.664;9.166;2023-11-21T07:49:55;101168.45;;;7.79;100.00
18755;BME280;35061;47.664;9.166;2023-11-21T07:52:23;101165.47;;;7.83;100.00
18755;BME280;35061;47.664;9.166;2023-11-21T07:54:52;101156.94;;;7.83;100.00
18755;BME280;35061;47.664;9.166;2023-11-21T07:57:20;101172.77;;;7.84;100.00
18755;BME280;35061;47.664;9.166;2023-11-21T07:59:47;101166.62;;;7.86;100.00
18755;BME280;35061;47.664;9.166;2023-11-21T08:02:16;101171.39;;;7.89;100.00
18755;BME280;35061;47.664;9.166;2023-11-21T08:04:45;101172.83;;;7.93;100.00
18755;BME280;35061;47.664;9.166;2023-11-21T08:07:13;101164.66;;;8.05;100.00
18755;BME280;35061;47.664;9.166;2023-11-21T08:09:41;101160.17;;;8.26;100.00
18755;BME280;35061;47.664;9.166;2023-11-21T08:12:09;101162.27;;;8.35;100.00
18755;BME280;35061;47.664;9.166;2023-11-21T08:14:38;101158.93;;;8.36;100.00
18755;BME280;35061;47.664;9.166;2023-11-21T08:17:06;101158.27;;;8.32;100.00
18755;BME280;35061;47.664;9.166;2023-11-21T08:19:34;101158.93;;;8.36;100.00
18755;BME280;35061;47.664;9.166;2023-11-21T08:22:03;101157.20;;;8.39;100.00
18755;BME280;35061;47.664;9.166;2023-11-21T08:24:31;101167.37;;;8.40;100.00
18755;BME280;35061;47.664;9.166;2023-11-21T08:26:59;101163.05;;;8.35;99.57
18755;BME280;35061;47.664;9.166;2023-11-21T08:29:27;101163.21;;;8.32;100.00
18755;BME280;35061;47.664;9.166;2023-11-21T08:31:55;101175.74;;;8.34;100.00
18755;BME280;35061;47.664;9.166;2023-11-21T08:34:24;101170.05;;;8.34;100.00
18755;BME280;35061;47.664;9.166;2023-11-21T08:36:52;101178.12;;;8.36;100.00
18755;BME280;35061;47.664;9.166;2023-11-21T08:39:20;101177.67;;;8.37;100.00
18755;BME280;35061;47.664;9.166;2023-11-21T08:41:51;101180.68;;;8.43;100.00
18755;BME280;35061;47.664;9.166;2023-11-21T08:44:19;101184.17;;;8.47;100.00
18755;BME280;35061;47.664;9.166;2023-11-21T08:46:47;101186.14;;;8.50;100.00
18755;BME280;35061;47.664;9.166;2023-11-21T08:49:15;101192.48;;;8.55;100.00
18755;BME280;35061;47.664;9.166;2023-11-21T08:51:44;101190.09;;;8.53;100.00
18755;BME280;35061;47.664;9.166;2023-11-21T08:54:13;101190.91;;;8.54;100.00
18755;BME280;35061;47.664;9.166;2023-11-21T08:56:43;101192.02;;;8.56;100.00
18755;BME280;35061;47.664;9.166;2023-11-21T08:59:11;101193.95;;;8.59;100.00
18755;BME280;35061;47.664;9.166;2023-11-21T09:01:42;101195.39;;;8.64;100.00
18755;BME280;35061;47.664;9.166;2023-11-21T09:04:13;101204.25;;;8.66;100.00
18755;BME280;35061;47.664;9.166;2023-11-21T09:06:41;101197.26;;;8.58;100.00
18755;BME280;35061;47.664;9.166;2023-11-21T09:09:09;101208.54;;;8.61;100.00
18755;BME280;35061;47.664;9.166;2023-11-21T09:11:38;101208.08;;;8.63;100.00
18755;BME280;35061;47.664;9.166;2023-11-21T09:14:06;101204.71;;;8.64;100.00
18755;BME280;35061;47.664;9.166;2023-11-21T09:16:34;101209.98;;;8.66;100.00
18755;BME280;35061;47.664;9.166;2023-11-21T09:19:02;101212.69;;;8.70;100.00
18755;BME280;35061;47.664;9.166;2023-11-21T09:21:33;101214.88;;;8.65;100.00
18755;BME280;35061;47.664;9.166;2023-11-21T09:24:02;101216.94;;;8.65;100.00
18755;BME280;35061;47.664;9.166;2023-11-21T09:26:30;101224.27;;;8.66;100.00
18755;BME280;35061;47.664;9.166;2023-11-21T09:28:58;101232.02;;;8.65;100.00
18755;BME280;35061;47.664;9.166;2023-11-21T09:31:26;101222.34;;;8.63;100.00
18755;BME280;35061;47.664;9.166;2023-11-21T09:33:55;101226.45;;;8.62;100.00
18755;BME280;35061;47.664;9.166;2023-11-21T09:36:23;101235.81;;;8.62;100.00
18755;BME280;35061;47.664;9.166;2023-11-21T09:38:55;101237.41;;;8.63;100.00
18755;BME280;35061;47.664;9.166;2023-11-21T09:41:33;101237.70;;;8.65;100.00
18755;BME280;35061;47.664;9.166;2023-11-21T09:44:06;101228.68;;;8.67;100.00
18755;BME280;35061;47.664;9.166;2023-11-21T09:46:41;101223.80;;;8.68;100.00
18755;BME280;35061;47.664;9.166;2023-11-21T09:49:11;101226.16;;;8.69;100.00
18755;BME280;35061;47.664;9.166;2023-11-21T09:51:43;101225.38;;;8.69;100.00
18755;BME280;35061;47.664;9.166;2023-11-21T09:54:15;101225.38;;;8.69;100.00
18755;BME280;35061;47.664;9.166;2023-11-21T09:56:43;101229.99;;;8.75;100.00
18755;BME280;35061;47.664;9.166;2023-11-21T09:59:14;101229.04;;;8.78;100.00
18755;BME280;35061;47.664;9.166;2023-11-21T10:01:43;101225.73;;;8.80;100.00
18755;BME280;35061;47.664;9.166;2023-11-21T10:04:11;101232.70;;;8.79;99.37
18755;BME280;35061;47.664;9.166;2023-11-21T10:06:40;101223.80;;;8.68;99.12
18755;BME280;35061;47.664;9.166;2023-11-21T10:09:14;101219.16;;;8.70;100.00
18755;BME280;35061;47.664;9.166;2023-11-21T10:11:43;101216.98;;;8.74;99.91
18755;BME280;35061;47.664;9.166;2023-11-21T10:14:11;101227.47;;;8.77;100.00
18755;BME280;35061;47.664;9.166;2023-11-21T10:16:42;101211.61;;;8.86;100.00
18755;BME280;35061;47.664;9.166;2023-11-21T10:19:12;101222.44;;;9.00;100.00
18755;BME280;35061;47.664;9.166;2023-11-21T10:21:43;101218.97;;;9.05;98.97
18755;BME280;35061;47.664;9.166;2023-11-21T10:24:12;101228.48;;;9.12;99.94
18755;BME280;35061;47.664;9.166;2023-11-21T10:26:40;101212.95;;;9.13;99.19
18755;BME280;35061;47.664;9.166;2023-11-21T10:29:19;101222.50;;;9.19;98.85
18755;BME280;35061;47.664;9.166;2023-11-21T10:31:51;101217.07;;;9.21;99.63
18755;BME280;35061;47.664;9.166;2023-11-21T10:34:22;101203.11;;;9.23;98.86
18755;BME280;35061;47.664;9.166;2023-11-21T10:36:50;101210.76;;;9.26;98.63
18755;BME280;35061;47.664;9.166;2023-11-21T10:39:19;101210.76;;;9.35;99.62
18755;BME280;35061;47.664;9.166;2023-11-21T10:41:51;101205.53;;;9.43;99.76
18755;BME280;35061;47.664;9.166;2023-11-21T10:44:19;101203.80;;;9.46;98.98
18755;BME280;35061;47.664;9.166;2023-11-21T10:46:56;101208.38;;;9.43;98.37
18755;BME280;35061;47.664;9.166;2023-11-21T10:49:25;101209.35;;;9.40;97.84
18755;BME280;35061;47.664;9.166;2023-11-21T10:51:54;101210.92;;;9.41;97.95
18755;BME280;35061;47.664;9.166;2023-11-21T10:54:25;101213.28;;;9.43;97.90
18755;BME280;35061;47.664;9.166;2023-11-21T10:56:57;101210.73;;;9.45;98.09
18755;BME280;35061;47.664;9.166;2023-11-21T10:59:30;101204.09;;;9.48;96.34
18755;BME280;35061;47.664;9.166;2023-11-21T11:02:11;101203.14;;;9.51;96.86
18755;BME280;35061;47.664;9.166;2023-11-21T11:04:48;101212.49;;;9.61;97.83
18755;BME280;35061;47.664;9.166;2023-11-21T11:07:17;101215.99;;;9.74;97.51
18755;BME280;35061;47.664;9.166;2023-11-21T11:09:45;101212.33;;;9.83;97.36
18755;BME280;35061;47.664;9.166;2023-11-21T11:12:14;101210.27;;;9.93;96.98
18755;BME280;35061;47.664;9.166;2023-11-21T11:14:45;101196.70;;;10.03;97.72
18755;BME280;35061;47.664;9.166;2023-11-21T11:17:13;101200.00;;;10.20;97.79
18755;BME280;35061;47.664;9.166;2023-11-21T11:19:41;101196.63;;;10.31;96.06
18755;BME280;35061;47.664;9.166;2023-11-21T11:25:15;101199.94;;;10.48;93.03
18755;BME280;35061;47.664;9.166;2023-11-21T11:28:07;101198.66;;;10.49;93.83
18755;BME280;35061;47.664;9.166;2023-11-21T11:31:00;101203.30;;;10.28;92.45
18755;BME280;35061;47.664;9.166;2023-11-21T11:33:42;101199.25;;;10.10;95.12
18755;BME280;35061;47.664;9.166;2023-11-21T11:36:31;101204.84;;;9.95;95.80
18755;BME280;35061;47.664;9.166;2023-11-21T11:39:02;101197.38;;;9.79;96.38
18755;BME280;35061;47.664;9.166;2023-11-21T11:41:31;101202.81;;;9.58;97.10
18755;BME280;35061;47.664;9.166;2023-11-21T11:44:03;101195.52;;;9.48;97.63
18755;BME280;35061;47.664;9.166;2023-11-21T11:46:42;101198.83;;;9.28;97.56
18755;BME280;35061;47.664;9.166;2023-11-21T11:49:29;101200.27;;;9.14;97.30
18755;BME280;35061;47.664;9.166;2023-11-21T11:52:31;101201.18;;;9.01;97.64
18755;BME280;35061;47.664;9.166;2023-11-21T11:55:01;101196.37;;;8.79;96.60
18755;BME280;35061;47.664;9.166;2023-11-21T11:57:34;101209.03;;;8.69;98.10
18755;BME280;35061;47.664;9.166;2023-11-21T12:00:12;101199.31;;;8.57;98.09
18755;BME280;35061;47.664;9.166;2023-11-21T12:02:44;101207.00;;;8.47;98.99
18755;BME280;35061;47.664;9.166;2023-11-21T12:05:16;101204.77;;;8.42;99.37
18755;BME280;35061;47.664;9.166;2023-11-21T12:07:46;101214.29;;;8.39;100.00
18755;BME280;35061;47.664;9.166;2023-11-21T12:10:16;101218.05;;;8.36;100.00
18755;BME280;35061;47.664;9.166;2023-11-21T12:12:49;101213.64;;;8.35;100.00
18755;BME280;35061;47.664;9.166;2023-11-21T12:15:18;101216.16;;;8.33;100.00
18755;BME280;35061;47.664;9.166;2023-11-21T12:17:50;101206.48;;;8.30;100.00
18755;BME280;35061;47.664;9.166;2023-11-21T12:20:19;101215.17;;;8.27;100.00
18755;BME280;35061;47.664;9.166;2023-11-21T12:22:49;101213.24;;;8.23;100.00
18755;BME280;35061;47.664;9.166;2023-11-21T12:25:21;101208.80;;;8.22;100.00
18755;BME280;35061;47.664;9.166;2023-11-21T12:27:50;101210.86;;;8.22;100.00
18755;BME280;35061;47.664;9.166;2023-11-21T12:30:30;101212.13;;;8.21;100.00
18755;BME280;35061;47.664;9.166;2023-11-21T12:33:03;101205.95;;;8.22;100.00
18755;BME280;35061;47.664;9.166;2023-11-21T12:35:34;101201.02;;;8.23;100.00
18755;BME280;35061;47.664;9.166;2023-11-21T12:38:03;101207.88;;;8.26;100.00
18755;BME280;35061;47.664;9.166;2023-11-21T12:40:32;101212.30;;;8.27;100.00
18755;BME280;35061;47.664;9.166;2023-11-21T12:43:01;101217.23;;;8.26;100.00
18755;BME280;35061;47.664;9.166;2023-11-21T12:45:31;101223.84;;;8.23;100.00
18755;BME280;35061;47.664;9.166;2023-11-21T12:48:04;101227.83;;;8.26;100.00
18755;BME280;35061;47.664;9.166;2023-11-21T12:50:36;101225.80;;;8.26;100.00
18755;BME280;35061;47.664;9.166;2023-11-21T12:53:07;101225.67;;;8.30;100.00
18755;BME280;35061;47.664;9.166;2023-11-21T12:55:40;101217.76;;;8.34;100.00
18755;BME280;35061;47.664;9.166;2023-11-21T12:58:09;101213.48;;;8.38;100.00
18755;BME280;35061;47.664;9.166;2023-11-21T13:00:46;101217.66;;;8.47;100.00
18755;BME280;35061;47.664;9.166;2023-11-21T13:03:15;101217.37;;;8.54;100.00
18755;BME280;35061;47.664;9.166;2023-11-21T13:05:47;101222.99;;;8.67;100.00
18755;BME280;35061;47.664;9.166;2023-11-21T13:08:20;101221.62;;;8.81;100.00